sensor_id;sensor_type;location;lat;lon;timestamp;temperature;humidity
45383;DHT22;42455;51.660;5.824;2022-08-02T00:01:24;16.2;83.5
45383;DHT22;42455;51.660;5.824;2022-08-02T00:06:30;16.2;84.0
45383;DHT22;42455;51.660;5.824;2022-08-02T00:11:37;16.2;84.0
45383;DHT22;42455;51.660;5.824;2022-08-02T00:16:43;16.2;84.5
45383;DHT22;42455;51.660;5.824;2022-08-02T00:21:49;16.2;84.5
45383;DHT22;42455;51.660;5.824;2022-08-02T00:26:55;16.2;84.5
45383;DHT22;42455;51.660;5.824;2022-08-02T00:32:02;16.2;85.0
45383;DHT22;42455;51.660;5.824;2022-08-02T00:37:08;16.1;85.0
45383;DHT22;42455;51.660;5.824;2022-08-02T00:42:14;16.1;85.0
45383;DHT22;42455;51.660;5.824;2022-08-02T00:47:20;16.1;85.5
45383;DHT22;42455;51.660;5.824;2022-08-02T00:52:26;16.1;86.0
45383;DHT22;42455;51.660;5.824;2022-08-02T00:57:32;16.1;86.0
45383;DHT22;42455;51.660;5.824;2022-08-02T01:02:39;16.2;86.0
45383;DHT22;42455;51.660;5.824;2022-08-02T01:07:45;16.2;86.0
45383;DHT22;42455;51.660;5.824;2022-08-02T01:12:51;16.3;86.0
45383;DHT22;42455;51.660;5.824;2022-08-02T01:18:04;16.2;86.0
45383;DHT22;42455;51.660;5.824;2022-08-02T01:24:29;16.2;86.0
45383;DHT22;42455;51.660;5.824;2022-08-02T01:29:38;16.2;85.5
45383;DHT22;42455;51.660;5.824;2022-08-02T01:33:19;16.1;86.0
45383;DHT22;42455;51.660;5.824;2022-08-02T01:38:30;16.1;85.5
45383;DHT22;42455;51.660;5.824;2022-08-02T01:43:29;16.1;85.5
45383;DHT22;42455;51.660;5.824;2022-08-02T01:48:35;16.0;85.5
45383;DHT22;42455;51.660;5.824;2022-08-02T01:53:43;16.0;86.0
45383;DHT22;42455;51.660;5.824;2022-08-02T01:58:48;16.0;86.0
45383;DHT22;42455;51.660;5.824;2022-08-02T02:03:54;16.0;86.0
45383;DHT22;42455;51.660;5.824;2022-08-02T02:09:01;16.0;86.0
45383;DHT22;42455;51.660;5.824;2022-08-02T02:14:06;16.0;86.0
45383;DHT22;42455;51.660;5.824;2022-08-02T02:19:15;15.9;86.0
45383;DHT22;42455;51.660;5.824;2022-08-02T02:24:17;15.9;86.0
45383;DHT22;42455;51.660;5.824;2022-08-02T02:29:27;15.9;86.0
45383;DHT22;42455;51.660;5.824;2022-08-02T02:34:33;15.8;86.0
45383;DHT22;42455;51.660;5.824;2022-08-02T02:39:37;15.7;86.0
45383;DHT22;42455;51.660;5.824;2022-08-02T02:44:44;15.7;86.5
45383;DHT22;42455;51.660;5.824;2022-08-02T02:49:50;15.7;86.5
45383;DHT22;42455;51.660;5.824;2022-08-02T02:54:55;15.7;86.5
45383;DHT22;42455;51.660;5.824;2022-08-02T03:00:02;15.7;87.0
45383;DHT22;42455;51.660;5.824;2022-08-02T03:05:09;15.7;87.0
45383;DHT22;42455;51.660;5.824;2022-08-02T03:10:13;15.6;87.0
45383;DHT22;42455;51.660;5.824;2022-08-02T03:15:20;15.6;87.0
45383;DHT22;42455;51.660;5.824;2022-08-02T03:20:25;15.6;87.0
45383;DHT22;42455;51.660;5.824;2022-08-02T03:25:32;15.6;87.0
45383;DHT22;42455;51.660;5.824;2022-08-02T03:30:38;15.5;87.0
45383;DHT22;42455;51.660;5.824;2022-08-02T03:35:45;15.5;87.5
45383;DHT22;42455;51.660;5.824;2022-08-02T03:40:51;15.5;87.5
45383;DHT22;42455;51.660;5.824;2022-08-02T03:45:57;15.5;87.5
45383;DHT22;42455;51.660;5.824;2022-08-02T03:51:03;15.4;87.5
45383;DHT22;42455;51.660;5.824;2022-08-02T03:56:09;15.4;88.0
45383;DHT22;42455;51.660;5.824;2022-08-02T04:01:15;15.3;88.0
45383;DHT22;42455;51.660;5.824;2022-08-02T04:06:21;15.3;88.0
45383;DHT22;42455;51.660;5.824;2022-08-02T04:11:27;15.3;88.5
45383;DHT22;42455;51.660;5.824;2022-08-02T04:16:42;15.3;88.5
45383;DHT22;42455;51.660;5.824;2022-08-02T04:21:42;15.3;89.0
45383;DHT22;42455;51.660;5.824;2022-08-02T04:26:47;15.3;89.5
45383;DHT22;42455;51.660;5.824;2022-08-02T04:31:53;15.4;89.5
45383;DHT22;42455;51.660;5.824;2022-08-02T04:36:59;15.5;90.0
45383;DHT22;42455;51.660;5.824;2022-08-02T04:42:05;15.6;90.0
45383;DHT22;42455;51.660;5.824;2022-08-02T04:47:11;15.7;90.0
45383;DHT22;42455;51.660;5.824;2022-08-02T04:52:17;15.7;90.0
45383;DHT22;42455;51.660;5.824;2022-08-02T04:57:23;15.7;90.0
45383;DHT22;42455;51.660;5.824;2022-08-02T05:02:30;15.8;90.0
45383;DHT22;42455;51.660;5.824;2022-08-02T05:07:36;15.8;90.0
45383;DHT22;42455;51.660;5.824;2022-08-02T05:12:42;15.9;90.0
45383;DHT22;42455;51.660;5.824;2022-08-02T05:17:48;16.0;90.0
45383;DHT22;42455;51.660;5.824;2022-08-02T05:22:54;16.0;90.5
45383;DHT22;42455;51.660;5.824;2022-08-02T05:28:01;16.1;90.5
45383;DHT22;42455;51.660;5.824;2022-08-02T05:33:07;16.3;90.5
45383;DHT22;42455;51.660;5.824;2022-08-02T05:38:14;16.3;90.5
45383;DHT22;42455;51.660;5.824;2022-08-02T05:43:19;16.4;90.5
45383;DHT22;42455;51.660;5.824;2022-08-02T05:48:26;16.5;90.5
45383;DHT22;42455;51.660;5.824;2022-08-02T05:53:36;16.6;90.5
45383;DHT22;42455;51.660;5.824;2022-08-02T05:59:11;16.7;90.5
45383;DHT22;42455;51.660;5.824;2022-08-02T06:03:55;16.8;91.0
45383;DHT22;42455;51.660;5.824;2022-08-02T06:08:54;17.0;91.0
45383;DHT22;42455;51.660;5.824;2022-08-02T06:13:57;17.2;91.0
45383;DHT22;42455;51.660;5.824;2022-08-02T06:19:03;17.4;91.5
45383;DHT22;42455;51.660;5.824;2022-08-02T06:24:09;17.6;91.5
45383;DHT22;42455;51.660;5.824;2022-08-02T06:29:15;17.9;91.5
45383;DHT22;42455;51.660;5.824;2022-08-02T06:34:21;18.1;91.5
45383;DHT22;42455;51.660;5.824;2022-08-02T06:39:38;18.4;91.5
45383;DHT22;42455;51.660;5.824;2022-08-02T06:44:34;18.7;92.0
45383;DHT22;42455;51.660;5.824;2022-08-02T06:49:40;19.1;91.5
45383;DHT22;42455;51.660;5.824;2022-08-02T06:54:46;19.5;91.5
45383;DHT22;42455;51.660;5.824;2022-08-02T06:59:53;19.8;91.5
45383;DHT22;42455;51.660;5.824;2022-08-02T07:04:59;20.2;91.0
45383;DHT22;42455;51.660;5.824;2022-08-02T07:10:05;20.6;91.0
45383;DHT22;42455;51.660;5.824;2022-08-02T07:15:11;21.0;91.0
45383;DHT22;42455;51.660;5.824;2022-08-02T07:20:17;21.5;90.5
45383;DHT22;42455;51.660;5.824;2022-08-02T07:25:24;21.9;90.0
45383;DHT22;42455;51.660;5.824;2022-08-02T07:30:30;22.3;89.0
45383;DHT22;42455;51.660;5.824;2022-08-02T07:35:36;22.8;88.0
45383;DHT22;42455;51.660;5.824;2022-08-02T07:40:42;23.2;87.0
45383;DHT22;42455;51.660;5.824;2022-08-02T07:45:47;23.6;86.0
45383;DHT22;42455;51.660;5.824;2022-08-02T07:50:54;23.9;84.5
45383;DHT22;42455;51.660;5.824;2022-08-02T07:56:00;24.1;84.0
45383;DHT22;42455;51.660;5.824;2022-08-02T08:01:06;24.4;84.0
45383;DHT22;42455;51.660;5.824;2022-08-02T08:06:12;24.7;83.0
45383;DHT22;42455;51.660;5.824;2022-08-02T08:11:18;24.9;82.0
45383;DHT22;42455;51.660;5.824;2022-08-02T08:16:25;25.2;81.0
45383;DHT22;42455;51.660;5.824;2022-08-02T08:21:31;25.4;80.5
45383;DHT22;42455;51.660;5.824;2022-08-02T08:26:37;25.6;79.5
45383;DHT22;42455;51.660;5.824;2022-08-02T08:31:43;25.9;78.5
45383;DHT22;42455;51.660;5.824;2022-08-02T08:36:49;26.1;78.0
45383;DHT22;42455;51.660;5.824;2022-08-02T08:41:56;26.3;77.0
45383;DHT22;42455;51.660;5.824;2022-08-02T08:47:03;26.5;76.0
45383;DHT22;42455;51.660;5.824;2022-08-02T08:52:10;26.7;74.5
45383;DHT22;42455;51.660;5.824;2022-08-02T08:57:15;26.8;74.0
45383;DHT22;42455;51.660;5.824;2022-08-02T09:02:21;26.9;73.5
45383;DHT22;42455;51.660;5.824;2022-08-02T09:07:27;27.0;73.5
45383;DHT22;42455;51.660;5.824;2022-08-02T09:12:33;27.2;73.0
45383;DHT22;42455;51.660;5.824;2022-08-02T09:17:49;27.3;73.0
45383;DHT22;42455;51.660;5.824;2022-08-02T09:23:03;27.4;72.5
45383;DHT22;42455;51.660;5.824;2022-08-02T09:27:52;27.5;72.5
45383;DHT22;42455;51.660;5.824;2022-08-02T09:32:58;27.6;72.0
45383;DHT22;42455;51.660;5.824;2022-08-02T09:38:08;27.7;72.5
45383;DHT22;42455;51.660;5.824;2022-08-02T09:43:10;27.8;72.5
45383;DHT22;42455;51.660;5.824;2022-08-02T09:48:16;28.0;71.0
45383;DHT22;42455;51.660;5.824;2022-08-02T09:53:23;28.1;70.5
45383;DHT22;42455;51.660;5.824;2022-08-02T09:58:29;28.1;70.0
45383;DHT22;42455;51.660;5.824;2022-08-02T10:03:35;28.2;70.5
45383;DHT22;42455;51.660;5.824;2022-08-02T10:08:41;28.4;70.0
45383;DHT22;42455;51.660;5.824;2022-08-02T10:13:49;0.0;0.0
45383;DHT22;42455;51.660;5.824;2022-08-02T10:18:55;28.6;69.0
45383;DHT22;42455;51.660;5.824;2022-08-02T10:24:04;28.6;70.0
45383;DHT22;42455;51.660;5.824;2022-08-02T10:29:07;28.8;69.0
45383;DHT22;42455;51.660;5.824;2022-08-02T10:34:15;28.9;68.0
45383;DHT22;42455;51.660;5.824;2022-08-02T10:39:19;29.1;68.0
45383;DHT22;42455;51.660;5.824;2022-08-02T10:44:29;29.2;67.5
45383;DHT22;42455;51.660;5.824;2022-08-02T10:49:46;29.4;66.0
45383;DHT22;42455;51.660;5.824;2022-08-02T10:54:39;29.4;65.0
45383;DHT22;42455;51.660;5.824;2022-08-02T11:05:07;29.6;62.5
45383;DHT22;42455;51.660;5.824;2022-08-02T11:09:56;29.7;62.0
45383;DHT22;42455;51.660;5.824;2022-08-02T11:15:04;29.7;61.0
45383;DHT22;42455;51.660;5.824;2022-08-02T11:20:19;29.8;60.0
45383;DHT22;42455;51.660;5.824;2022-08-02T11:25:34;29.9;59.5
45383;DHT22;42455;51.660;5.824;2022-08-02T11:30:22;30.0;58.5
45383;DHT22;42455;51.660;5.824;2022-08-02T11:35:33;30.0;57.0
45383;DHT22;42455;51.660;5.824;2022-08-02T11:40:36;30.2;57.0
45383;DHT22;42455;51.660;5.824;2022-08-02T11:45:40;30.3;56.5
45383;DHT22;42455;51.660;5.824;2022-08-02T11:50:46;30.4;56.0
45383;DHT22;42455;51.660;5.824;2022-08-02T11:55:56;30.4;55.5
45383;DHT22;42455;51.660;5.824;2022-08-02T12:00:58;30.4;55.0
45383;DHT22;42455;51.660;5.824;2022-08-02T12:06:05;30.4;55.0
45383;DHT22;42455;51.660;5.824;2022-08-02T12:11:11;30.5;55.5
45383;DHT22;42455;51.660;5.824;2022-08-02T12:16:17;30.5;55.5
45383;DHT22;42455;51.660;5.824;2022-08-02T12:21:24;30.5;55.5
45383;DHT22;42455;51.660;5.824;2022-08-02T12:26:29;30.5;54.5
45383;DHT22;42455;51.660;5.824;2022-08-02T12:31:44;30.5;54.0
45383;DHT22;42455;51.660;5.824;2022-08-02T12:36:43;30.4;54.5
45383;DHT22;42455;51.660;5.824;2022-08-02T12:41:55;30.4;54.5
45383;DHT22;42455;51.660;5.824;2022-08-02T12:46:57;30.3;54.5
45383;DHT22;42455;51.660;5.824;2022-08-02T12:52:00;30.3;54.0
45383;DHT22;42455;51.660;5.824;2022-08-02T12:57:10;30.3;54.0
45383;DHT22;42455;51.660;5.824;2022-08-02T13:02:13;30.5;53.0
45383;DHT22;42455;51.660;5.824;2022-08-02T13:07:19;30.6;53.0
45383;DHT22;42455;51.660;5.824;2022-08-02T13:12:25;30.7;52.5
45383;DHT22;42455;51.660;5.824;2022-08-02T13:17:31;30.8;52.5
45383;DHT22;42455;51.660;5.824;2022-08-02T13:22:37;30.9;52.5
45383;DHT22;42455;51.660;5.824;2022-08-02T13:27:43;31.0;53.0
45383;DHT22;42455;51.660;5.824;2022-08-02T13:32:49;31.2;52.5
45383;DHT22;42455;51.660;5.824;2022-08-02T13:37:55;31.3;52.5
45383;DHT22;42455;51.660;5.824;2022-08-02T13:43:02;31.4;52.5
45383;DHT22;42455;51.660;5.824;2022-08-02T13:48:07;31.5;53.0
45383;DHT22;42455;51.660;5.824;2022-08-02T13:53:13;31.7;53.0
45383;DHT22;42455;51.660;5.824;2022-08-02T13:58:19;31.8;53.5
45383;DHT22;42455;51.660;5.824;2022-08-02T14:03:26;32.0;53.5
45383;DHT22;42455;51.660;5.824;2022-08-02T14:08:32;32.1;52.5
45383;DHT22;42455;51.660;5.824;2022-08-02T14:13:38;32.2;52.0
45383;DHT22;42455;51.660;5.824;2022-08-02T14:18:44;32.2;51.5
45383;DHT22;42455;51.660;5.824;2022-08-02T14:23:50;32.1;51.0
45383;DHT22;42455;51.660;5.824;2022-08-02T14:28:57;32.2;51.0
45383;DHT22;42455;51.660;5.824;2022-08-02T14:34:03;32.3;51.5
45383;DHT22;42455;51.660;5.824;2022-08-02T14:39:09;32.5;51.5
45383;DHT22;42455;51.660;5.824;2022-08-02T14:44:15;32.5;51.5
45383;DHT22;42455;51.660;5.824;2022-08-02T14:49:22;32.5;51.0
45383;DHT22;42455;51.660;5.824;2022-08-02T14:54:28;32.6;51.0
45383;DHT22;42455;51.660;5.824;2022-08-02T14:59:34;32.6;51.5
45383;DHT22;42455;51.660;5.824;2022-08-02T15:04:40;32.7;51.5
45383;DHT22;42455;51.660;5.824;2022-08-02T15:09:46;32.7;51.0
45383;DHT22;42455;51.660;5.824;2022-08-02T15:14:52;32.7;50.5
45383;DHT22;42455;51.660;5.824;2022-08-02T15:19:59;32.7;51.0
45383;DHT22;42455;51.660;5.824;2022-08-02T15:25:05;32.8;50.5
45383;DHT22;42455;51.660;5.824;2022-08-02T15:30:11;32.9;51.0
45383;DHT22;42455;51.660;5.824;2022-08-02T15:35:17;32.9;50.5
45383;DHT22;42455;51.660;5.824;2022-08-02T15:40:24;32.9;50.5
45383;DHT22;42455;51.660;5.824;2022-08-02T15:45:30;33.0;50.5
45383;DHT22;42455;51.660;5.824;2022-08-02T15:50:36;32.9;50.5
45383;DHT22;42455;51.660;5.824;2022-08-02T15:55:42;32.9;51.0
45383;DHT22;42455;51.660;5.824;2022-08-02T16:00:48;32.9;51.0
45383;DHT22;42455;51.660;5.824;2022-08-02T16:05:55;32.9;51.0
45383;DHT22;42455;51.660;5.824;2022-08-02T16:11:01;33.0;51.5
45383;DHT22;42455;51.660;5.824;2022-08-02T16:16:07;33.0;51.5
45383;DHT22;42455;51.660;5.824;2022-08-02T16:21:13;33.2;52.0
45383;DHT22;42455;51.660;5.824;2022-08-02T16:26:20;33.4;52.0
45383;DHT22;42455;51.660;5.824;2022-08-02T16:31:26;33.5;52.0
45383;DHT22;42455;51.660;5.824;2022-08-02T16:36:32;33.6;51.5
45383;DHT22;42455;51.660;5.824;2022-08-02T16:41:38;33.6;51.5
45383;DHT22;42455;51.660;5.824;2022-08-02T16:46:44;33.6;51.5
45383;DHT22;42455;51.660;5.824;2022-08-02T16:51:50;33.5;51.5
45383;DHT22;42455;51.660;5.824;2022-08-02T16:56:57;33.5;51.5
45383;DHT22;42455;51.660;5.824;2022-08-02T17:02:03;33.4;51.5
45383;DHT22;42455;51.660;5.824;2022-08-02T17:07:09;33.4;51.5
45383;DHT22;42455;51.660;5.824;2022-08-02T17:12:15;33.4;51.5
45383;DHT22;42455;51.660;5.824;2022-08-02T17:17:22;33.4;51.5
45383;DHT22;42455;51.660;5.824;2022-08-02T17:22:28;33.4;51.5
45383;DHT22;42455;51.660;5.824;2022-08-02T17:27:34;33.4;51.5
45383;DHT22;42455;51.660;5.824;2022-08-02T17:32:41;33.4;51.5
45383;DHT22;42455;51.660;5.824;2022-08-02T17:37:46;33.4;51.5
45383;DHT22;42455;51.660;5.824;2022-08-02T17:42:53;33.3;52.0
45383;DHT22;42455;51.660;5.824;2022-08-02T17:47:59;33.2;51.5
45383;DHT22;42455;51.660;5.824;2022-08-02T17:53:05;33.1;52.0
45383;DHT22;42455;51.660;5.824;2022-08-02T17:58:11;33.0;52.0
45383;DHT22;42455;51.660;5.824;2022-08-02T18:03:17;32.8;52.5
45383;DHT22;42455;51.660;5.824;2022-08-02T18:08:24;32.7;53.0
45383;DHT22;42455;51.660;5.824;2022-08-02T18:13:30;32.6;53.0
45383;DHT22;42455;51.660;5.824;2022-08-02T18:18:36;32.3;53.5
45383;DHT22;42455;51.660;5.824;2022-08-02T18:23:42;32.1;54.0
45383;DHT22;42455;51.660;5.824;2022-08-02T18:28:49;31.9;54.5
45383;DHT22;42455;51.660;5.824;2022-08-02T18:33:55;31.6;55.0
45383;DHT22;42455;51.660;5.824;2022-08-02T18:39:01;31.3;55.5
45383;DHT22;42455;51.660;5.824;2022-08-02T18:44:07;31.0;56.5
45383;DHT22;42455;51.660;5.824;2022-08-02T18:49:13;30.7;57.0
45383;DHT22;42455;51.660;5.824;2022-08-02T18:54:20;30.4;58.0
45383;DHT22;42455;51.660;5.824;2022-08-02T18:59:26;30.1;59.0
45383;DHT22;42455;51.660;5.824;2022-08-02T19:04:32;29.9;59.0
45383;DHT22;42455;51.660;5.824;2022-08-02T19:09:38;29.6;59.5
45383;DHT22;42455;51.660;5.824;2022-08-02T19:14:44;29.4;60.5
45383;DHT22;42455;51.660;5.824;2022-08-02T19:19:50;29.1;61.0
45383;DHT22;42455;51.660;5.824;2022-08-02T19:24:56;28.9;61.5
45383;DHT22;42455;51.660;5.824;2022-08-02T19:30:03;28.7;62.0
45383;DHT22;42455;51.660;5.824;2022-08-02T19:35:10;28.5;62.5
45383;DHT22;42455;51.660;5.824;2022-08-02T19:40:14;28.3;63.5
45383;DHT22;42455;51.660;5.824;2022-08-02T19:45:21;28.1;64.0
45383;DHT22;42455;51.660;5.824;2022-08-02T19:50:27;27.9;64.5
45383;DHT22;42455;51.660;5.824;2022-08-02T19:55:33;27.7;65.0
45383;DHT22;42455;51.660;5.824;2022-08-02T20:00:40;27.6;65.5
45383;DHT22;42455;51.660;5.824;2022-08-02T20:05:46;0.0;0.0
45383;DHT22;42455;51.660;5.824;2022-08-02T20:10:52;27.2;66.5
45383;DHT22;42455;51.660;5.824;2022-08-02T20:15:58;27.1;67.0
45383;DHT22;42455;51.660;5.824;2022-08-02T20:21:05;26.9;67.5
45383;DHT22;42455;51.660;5.824;2022-08-02T20:26:11;26.7;68.0
45383;DHT22;42455;51.660;5.824;2022-08-02T20:31:17;26.5;68.5
45383;DHT22;42455;51.660;5.824;2022-08-02T20:36:23;26.4;69.0
45383;DHT22;42455;51.660;5.824;2022-08-02T20:41:29;26.3;69.5
45383;DHT22;42455;51.660;5.824;2022-08-02T20:46:36;26.2;70.0
45383;DHT22;42455;51.660;5.824;2022-08-02T20:51:42;26.1;70.0
45383;DHT22;42455;51.660;5.824;2022-08-02T20:56:48;26.0;71.0
45383;DHT22;42455;51.660;5.824;2022-08-02T21:01:54;25.9;71.5
45383;DHT22;42455;51.660;5.824;2022-08-02T21:07:00;25.8;72.5
45383;DHT22;42455;51.660;5.824;2022-08-02T21:12:07;25.7;73.0
45383;DHT22;42455;51.660;5.824;2022-08-02T21:17:13;25.6;74.0
45383;DHT22;42455;51.660;5.824;2022-08-02T21:22:19;25.4;74.5
45383;DHT22;42455;51.660;5.824;2022-08-02T21:27:25;25.3;75.5
45383;DHT22;42455;51.660;5.824;2022-08-02T21:32:31;25.2;75.5
45383;DHT22;42455;51.660;5.824;2022-08-02T21:37:38;25.1;76.0
45383;DHT22;42455;51.660;5.824;2022-08-02T21:42:44;25.0;76.5
45383;DHT22;42455;51.660;5.824;2022-08-02T21:47:50;24.9;76.5
45383;DHT22;42455;51.660;5.824;2022-08-02T21:52:56;24.8;77.0
45383;DHT22;42455;51.660;5.824;2022-08-02T21:58:02;24.8;77.0
45383;DHT22;42455;51.660;5.824;2022-08-02T22:03:09;24.6;78.0
45383;DHT22;42455;51.660;5.824;2022-08-02T22:08:15;24.5;78.0
45383;DHT22;42455;51.660;5.824;2022-08-02T22:13:21;24.4;78.5
45383;DHT22;42455;51.660;5.824;2022-08-02T22:18:28;24.3;79.0
45383;DHT22;42455;51.660;5.824;2022-08-02T22:23:34;24.2;79.5
45383;DHT22;42455;51.660;5.824;2022-08-02T22:28:40;24.1;80.0
45383;DHT22;42455;51.660;5.824;2022-08-02T22:33:46;24.0;80.5
45383;DHT22;42455;51.660;5.824;2022-08-02T22:38:52;23.9;81.0
45383;DHT22;42455;51.660;5.824;2022-08-02T22:43:58;23.9;81.5
45383;DHT22;42455;51.660;5.824;2022-08-02T22:49:05;23.8;81.5
45383;DHT22;42455;51.660;5.824;2022-08-02T22:54:11;23.7;81.5
45383;DHT22;42455;51.660;5.824;2022-08-02T22:59:17;23.6;81.5
45383;DHT22;42455;51.660;5.824;2022-08-02T23:04:23;23.4;82.5
45383;DHT22;42455;51.660;5.824;2022-08-02T23:09:29;23.3;83.0
45383;DHT22;42455;51.660;5.824;2022-08-02T23:14:36;23.2;83.0
45383;DHT22;42455;51.660;5.824;2022-08-02T23:19:42;23.2;83.0
45383;DHT22;42455;51.660;5.824;2022-08-02T23:24:48;23.1;83.5
45383;DHT22;42455;51.660;5.824;2022-08-02T23:29:54;23.0;83.5
45383;DHT22;42455;51.660;5.824;2022-08-02T23:35:00;23.0;84.0
45383;DHT22;42455;51.660;5.824;2022-08-02T23:40:07;22.9;84.5
45383;DHT22;42455;51.660;5.824;2022-08-02T23:45:13;22.8;84.5
45383;DHT22;42455;51.660;5.824;2022-08-02T23:50:19;22.7;84.5
45383;DHT22;42455;51.660;5.824;2022-08-02T23:55:25;22.7;85.0
